hwlogo.jpg (8581 bytes)
Home Your Weather Products Services Weather On Your Site Contact
HW Version Logo
Weather Info
Your Weather (Options)
Canadian Weather
International Weather
Enter your " Place, State", US Zip Code or ICAO:  
Forecast Information Radar Information
Thompson, Manitoba, Canada  Lat: 55.78N, Lon: 97.87W
ICAO Used: CYTH
Current Conditions
Updated: 9:00 AM CST TUE FEB 20 2018
Sun & Moon Information
Mostly Clear
Mostly Clear
Temp: -26°C
Humidity: 69%
Wind Speed: ESE 3 MPH
Barometer: 1018 mb
Dewpoint: -30°C
Heat Index: -26°C
Wind Chill: -30°C
Civil Twilight: 7:07 AM CST Moon Phase:
Waxing Crescent Moon
Sunrise: 7:45 AM CST
Sunset: 5:44 PM CST
Civil Twilight: 6:22 PM CST
Forecast for Thompson, MB:
(Forecast based on TAF for )
0739 AM CST TUE FEB 20 2018
  
MORNING AFTERNOON EVENING OVERNIGHT
Partly
Cloudy
Partly
Cloudy
Overcast Overcast
ZoneCast:
Dated: 0739 AM CST TUE FEB 20 2018
Morning...Partly cloudy winds variable in direction at 3 mph.

Afternoon...Partly cloudy winds variable in direction at 3 mph. Turning overcast winds variable in direction at 3 mph.

Evening...Overcast winds variable in direction at 3 mph.

Overnight...Overcast winds variable in direction at 3 mph.

Original Encoded TAF:
Dated: 0739 AM CST TUE FEB 20 2018
2018/02/20 13:39
TAF CYTH 201238Z 2013/2101 VRB03KT P6SM SCT060 
      TEMPO 2013/2019 BKN060 
     FM201900 VRB03KT P6SM BKN040 OVC080 
      TEMPO 2019/2101 4SM -SN BKN020 OVC040 
      RMK NXT FCST BY 201900Z